Flight Track Log - Related Links

Times and Time Zones

All times are in EDT time to prevent confusion due to time zone crossing. See the N920CS flight status page for this flight to view local times or setup timezone preferences in your user account.

Time Position Orientation Groundspeed Altitude Reporting Facility
EDT Latitude Longitude Course Direction KTS MPH feet Rate Location/Type
Sat 11:09:17 AM 33.8500 -84.2833 59° Northeast 128 147 2,000  Level Atlanta TRACON
Sat 11:10:17 AM 33.8667 -84.2500 59° Northeast 109 125 3,100 1,000 Climbing Atlanta TRACON
Sat 11:11:17 AM 33.8667 -84.2000 90° East 117 135 4,000 895 Climbing Atlanta TRACON
Sat 11:12:11 AM 33.8667 -84.1667 90° East 124 143 4,800 526 Climbing Atlanta TRACON
Sat 11:13:11 AM 33.8667 -84.1167 90° East 145 167 5,000 104 Climbing Atlanta TRACON
Sat 11:14:06 AM 33.8833 -84.0833 59° Northeast 152 175 5,000  Level Atlanta TRACON
Sat 11:15:11 AM 33.8833 -84.0167 90° East 151 174 5,000  Level Atlanta TRACON
Sat 11:16:06 AM 33.8833 -83.9833 90° East 154 177 5,000  Level Atlanta TRACON
Sat 11:17:05 AM 33.9000 -83.9333 68° East 154 177 5,000  Level Atlanta TRACON
Sat 11:18:06 AM 33.9000 -83.8667 90° East 154 177 5,000  Level Atlanta TRACON
Sat 11:19:05 AM 33.9167 -83.8167 68° East 157 181 5,000  Level Atlanta TRACON
Sat 11:20:06 AM 33.9167 -83.7667 90° East 154 177 5,000  Level Atlanta TRACON
Sat 11:21:05 AM 33.9167 -83.7167 90° East 144 166 5,000  Level Atlanta TRACON
Sat 11:22:06 AM 33.9333 -83.6833 59° Northeast 120 138 5,000  Level Atlanta TRACON
Sat 11:23:05 AM 33.9333 -83.6500 90° East 122 140 5,000 -250 Level Atlanta TRACON
Sat 11:24:06 AM 33.9333 -83.6000 90° East 123 142 4,500 -545 Descending Atlanta TRACON
Sat 11:25:06 AM 33.9333 -83.5667 90° East 113 130 3,900 -550 Descending Atlanta TRACON
Sat 11:26:06 AM 33.9167 -83.5500 140° Southeast 140 161 3,400 -500 Descending Atlanta TRACON
Sat 11:27:06 AM 33.9167 -83.6000 270° West 148 170 2,900 -500 Descending Atlanta TRACON
Sat 11:28:06 AM 33.9167 -83.6500 270° West 155 178 2,400 -200 Descending Atlanta TRACON
Sat 11:29:06 AM 33.9333 -83.6500 360° North 121 139 2,500  Climbing Atlanta TRACON
Sat 11:30:06 AM 33.9333 -83.6000 90° East 104 120 2,400  Descending Atlanta TRACON
Sat 11:31:06 AM 33.9500 -83.5667 59° Northeast 103 119 2,500  Climbing Atlanta TRACON
Sat 11:32:06 AM 33.9500 -83.5333 90° East 110 127 2,400 -48 Descending Atlanta TRACON
Sat 11:33:12 AM 33.9500 -83.5000 90° East 108 124 2,400 -48 Level Atlanta TRACON
Sat 11:34:12 AM 33.9500 -83.4667 90° East 90 104 2,300 -50 Descending Atlanta TRACON
Sat 11:35:12 AM 33.9500 -83.4333 90° East 87 100 2,300 -158 Level Atlanta TRACON
Sat 11:36:06 AM 33.9500 -83.4167 90° East 94 108 2,000 -421 Descending Atlanta TRACON
Sat 11:37:06 AM 33.9500 -83.3833 90° East 97 112 1,500 -67 Descending Atlanta TRACON
Sat 11:39:06 AM 33.9500 -83.3167 90° East 103 119 1,800 484 Climbing Atlanta TRACON
Sat 11:40:12 AM 34.0000 -83.3333 345° North 129 148 3,000 950 Climbing Atlanta TRACON
Sat 11:41:06 AM 34.0333 -83.3500 337° Northwest 137 158 3,700 526 Climbing Atlanta TRACON
Sat 11:42:06 AM 34.0500 -83.3833 301° West 167 192 4,000 150 Climbing Atlanta TRACON
Sat 11:43:06 AM 34.0333 -83.4167 239° Southwest 141 162 4,000 -368 Level Atlanta TRACON
Sat 11:44:00 AM 34.0000 -83.4500 220° Southwest 141 162 3,300 -750 Descending Atlanta TRACON
Sat 11:45:06 AM 33.9667 -83.4667 203° Southwest 143 165 2,500 -429 Descending Atlanta TRACON
Sat 11:46:06 AM 33.9667 -83.5167 270° West 134 154 2,400 -50 Descending Atlanta TRACON
Sat 11:47:06 AM 33.9667 -83.5500 270° West 128 147 2,400 -211 Level Atlanta TRACON
Sat 11:48:00 AM 33.9667 -83.6000 270° West 129 148 2,000 -526 Descending Atlanta TRACON
Sat 11:49:00 AM 33.9833 -83.6333 301° West 117 135 1,400 -158 Descending Atlanta TRACON
Sat 11:49:54 AM 33.9833 -83.6667 270° West 123 142 1,700 550 Climbing Atlanta TRACON
Sat 11:51:00 AM 34.0000 -83.7000 301° West 134 154 2,500 857 Climbing Atlanta TRACON
Sat 11:52:00 AM 34.0500 -83.7167 345° North 148 170 3,500 1,000 Climbing Atlanta TRACON
Sat 11:53:00 AM 34.0833 -83.7167 360° North 145 167 4,500 750 Climbing Atlanta TRACON
Sat 11:54:00 AM 34.1167 -83.7333 338° Northwest 164 189 5,000 250 Climbing Atlanta TRACON
Sat 11:55:00 AM 34.1167 -83.8000 270° West 187 215 5,000  Level Atlanta TRACON
Sat 11:56:06 AM 34.1167 -83.8667 270° West 183 211 5,000  Level Atlanta TRACON
Sat 11:57:00 AM 34.1000 -83.9167 248° West 180 207 5,000  Level Atlanta TRACON
Sat 11:58:06 AM 34.1000 -83.9833 270° West 182 209 5,000  Level Atlanta TRACON
Sat 11:59:00 AM 34.0833 -84.0333 248° West 178 205 5,000 -222 Level Atlanta TRACON
Sat 11:59:54 AM 34.0833 -84.0833 270° West 160 184 4,600 -500 Descending Atlanta TRACON
Sat 12:01:00 PM 34.0833 -84.1333 270° West 149 171 4,000 -500 Descending Atlanta TRACON
Sat 12:02:06 PM 34.0667 -84.2000 253° West 152 175 3,500 -500 Descending Atlanta TRACON
Sat 12:03:00 PM 34.0500 -84.2333 239° Southwest 145 167 3,000 -316 Descending Atlanta TRACON
Sat 12:04:00 PM 34.0167 -84.2500 203° Southwest 130 150 2,900  Descending Atlanta TRACON
Sat 12:05:00 PM 33.9833 -84.2667 203° Southwest 107 123 3,000 -50 Climbing Atlanta TRACON
Sat 12:06:00 PM 33.9667 -84.2667 180° South 99 114 2,800 -500 Descending Atlanta TRACON
Sat 12:07:00 PM 33.9333 -84.2833 203° Southwest 128 147 2,000 -700 Descending Atlanta TRACON
Sat 12:08:00 PM 33.9000 -84.2833 180° South 110 127 1,400 -600 Descending Atlanta TRACON
Sat 12:09:00 PM 33.8667 -84.2977 270° West  Level FlightAware Approximate
Sat 12:16:00 PM 33.8667 -84.3000 270° West  Level FlightAware Approximate
Sat 12:17:00 PM 33.8756 -84.3020 270° West  Level Estimated
Sat 12:18:00 PM 33.8756 -84.3020 270° West  Level Estimated

Login

Don't have an account? Register now (free) for customized features, flight alerts, and more!